Kennells Beach, North Carolina
Current Conditions -  °F | °C
As of 7:54 PM on Saturday 25 Oct 2014 (Local Time) from KEWN Reporting Station
Clear Clear  
Wind Chill: 14°   Ceiling: Unl
Heat Index: 14°   Visibility: 10mi
Dew Point: 11°   Wind: 5mph
Humidity: 81%   Direction: 190°S
Pressure: 29.92"   Gusts: NA
Location:  35.1354°N, 76.8853°W
Report Text: KEWN 252354Z 19004KT 10SM CLR 14/11 A2992 RMK AO2 SLP131 T01390106 10239 20139 53006
Loading
Personal Weather Stations






























Interactive Weather Map
Tropical Storm Tracking
New forecast layout! Learn more

10-Day Weather Forecast

Advertisements
Track Severe Weather on mobile